KWWR/WWR METAR and TAF weather

Enter ICAO airport designator
Station Type Date Time Source
KWWR METAR 2019/04/19 08:35 UTC NOAA

KWWR 190835Z AUTO 33010KT 10SM CLR 06/00 A3014 RMK AO2


Station Type Date Time Source
KWWR Decoded METAR 2019/04/19 08:35 UTC NOAA

Woodward, West Woodward Airport, OK, United States (KWWR) 36-26-12N 099-31-16W 667M
Apr 19, 2019 - 04:35 AM EDT / 2019.04.19 0835 UTC
Wind: from the NNW (330 degrees) at 12 MPH (10 KT):0
Visibility: 10 mile(s):0
Sky conditions: clear
Temperature: 42 F (6 C)
Dew Point: 32 F (0 C)
Relative Humidity: 65%
Pressure (altimeter): 30.14 in. Hg (1020 hPa)
ob: KWWR 190835Z AUTO 33010KT 10SM CLR 06/00 A3014 RMK AO2
cycle: 8

Station Type Date Time Source
KWWR TAF 2019/04/19 06:22 UTC NOAA

TAF KWWR 190520Z 1906/2006 30010KT P6SM SCT120
FM191500 34011KT P6SM SKC
FM200100 12005KT P6SM SKC

Example: see airport list